createdAt,value
2018-12-27T00:01:14.957Z,17.40
2018-12-27T00:06:10.676Z,16.50
2018-12-27T00:11:06.379Z,19.63
2018-12-27T00:16:02.441Z,17.30
2018-12-27T00:20:58.150Z,17.80
2018-12-27T00:25:53.881Z,16.83
2018-12-27T00:30:49.591Z,19.07
2018-12-27T00:35:45.327Z,18.97
2018-12-27T00:40:40.993Z,20.33
2018-12-27T00:45:36.707Z,17.73
2018-12-27T00:50:32.436Z,19.50
2018-12-27T00:55:28.163Z,19.13
2018-12-27T01:00:23.865Z,19.10
2018-12-27T01:05:19.566Z,17.97
2018-12-27T01:10:15.265Z,19.50
2018-12-27T01:15:10.988Z,19.73
2018-12-27T01:20:06.969Z,19.33
2018-12-27T01:25:02.712Z,19.70
2018-12-27T01:29:58.395Z,20.77
2018-12-27T01:34:54.234Z,19.33
2018-12-27T01:39:49.985Z,19.67
2018-12-27T01:44:45.675Z,21.57
2018-12-27T01:49:41.388Z,19.47
2018-12-27T01:54:37.113Z,20.17
2018-12-27T01:59:32.797Z,20.43
2018-12-27T02:04:28.508Z,20.00
2018-12-27T02:09:24.205Z,21.20
2018-12-27T02:14:19.941Z,20.67
2018-12-27T02:19:15.643Z,19.17
2018-12-27T02:24:11.940Z,21.50
2018-12-27T02:29:07.637Z,19.27
2018-12-27T02:34:03.375Z,21.20
2018-12-27T02:38:59.097Z,20.40
2018-12-27T02:43:54.813Z,20.50
2018-12-27T02:48:50.531Z,19.63
2018-12-27T02:53:46.231Z,19.37
2018-12-27T02:58:41.954Z,19.03
2018-12-27T03:03:43.882Z,22.03
2018-12-27T03:08:35.266Z,20.40
2018-12-27T03:13:30.987Z,20.10
2018-12-27T03:18:26.719Z,19.43
2018-12-27T03:23:22.389Z,20.27
2018-12-27T03:28:18.121Z,18.83
2018-12-27T03:33:14.159Z,20.00
2018-12-27T03:38:09.893Z,19.70
2018-12-27T03:43:05.624Z,17.97
2018-12-27T03:48:01.338Z,17.43
2018-12-27T03:52:57.043Z,21.80
2018-12-27T03:57:52.778Z,21.87
2018-12-27T04:02:48.447Z,19.90
2018-12-27T04:07:44.158Z,22.43
2018-12-27T04:12:40.139Z,19.73
2018-12-27T04:17:35.975Z,20.47
2018-12-27T04:22:31.775Z,19.57
2018-12-27T04:27:27.480Z,19.13
2018-12-27T04:32:24.000Z,18.17
2018-12-27T04:37:19.852Z,21.60
2018-12-27T04:42:15.564Z,21.53
2018-12-27T04:47:11.258Z,21.50
2018-12-27T04:52:06.981Z,21.53
2018-12-27T04:57:02.684Z,23.10
2018-12-27T05:01:58.369Z,21.47
2018-12-27T05:06:54.083Z,23.17
2018-12-27T05:11:49.809Z,22.53
2018-12-27T05:16:45.506Z,23.47
2018-12-27T05:21:41.368Z,23.10
2018-12-27T05:26:37.119Z,21.53
2018-12-27T05:31:32.822Z,23.53
2018-12-27T05:36:28.583Z,21.97
2018-12-27T05:41:24.580Z,26.20
2018-12-27T05:46:20.264Z,24.10
2018-12-27T05:51:16.251Z,24.40
2018-12-27T05:56:11.960Z,24.70
2018-12-27T06:01:07.653Z,23.77
2018-12-27T06:06:03.359Z,22.07
2018-12-27T06:10:59.127Z,24.40
2018-12-27T06:15:54.826Z,27.93
2018-12-27T06:20:50.555Z,23.70
2018-12-27T06:25:46.241Z,23.20
2018-12-27T06:30:41.986Z,25.30
2018-12-27T06:35:37.697Z,26.80
2018-12-27T06:40:33.441Z,23.03
2018-12-27T06:45:29.441Z,24.83
2018-12-27T06:50:25.155Z,24.87
2018-12-27T06:55:20.851Z,24.03
2018-12-27T07:00:16.575Z,28.23
2018-12-27T07:05:12.586Z,25.50
2018-12-27T07:10:08.317Z,25.70
2018-12-27T07:15:04.135Z,23.47
2018-12-27T07:19:59.860Z,27.67
2018-12-27T07:24:55.577Z,23.43
2018-12-27T07:29:51.301Z,28.53
2018-12-27T07:34:46.980Z,27.10
2018-12-27T07:39:43.013Z,27.90
2018-12-27T07:44:38.745Z,29.97
2018-12-27T07:49:34.445Z,27.07
2018-12-27T07:54:30.166Z,24.20
2018-12-27T07:59:26.174Z,25.83
2018-12-27T08:04:21.989Z,27.93
2018-12-27T08:09:17.671Z,25.23
2018-12-27T08:14:13.666Z,25.10
2018-12-27T08:19:09.391Z,28.17
2018-12-27T08:24:05.059Z,26.83
2018-12-27T08:29:00.776Z,27.63
2018-12-27T08:33:56.689Z,26.53
2018-12-27T08:38:52.431Z,27.27
2018-12-27T08:43:48.397Z,26.87
2018-12-27T08:48:44.122Z,27.70
2018-12-27T08:53:39.845Z,27.73
2018-12-27T08:58:35.559Z,27.83
2018-12-27T09:03:31.279Z,24.00
2018-12-27T09:08:27.690Z,25.50
2018-12-27T09:13:23.361Z,24.97
2018-12-27T09:18:19.147Z,26.13
2018-12-27T09:23:14.998Z,23.97
2018-12-27T09:28:10.701Z,22.90
2018-12-27T09:33:06.436Z,22.00
2018-12-27T09:38:02.373Z,21.73
2018-12-27T09:42:58.117Z,21.57
2018-12-27T09:47:54.163Z,22.67
2018-12-27T09:52:49.883Z,19.90
2018-12-27T09:57:45.628Z,24.03
2018-12-27T10:02:41.335Z,23.30
2018-12-27T10:07:37.072Z,21.40
2018-12-27T10:12:32.741Z,23.10
2018-12-27T10:17:28.476Z,20.77
2018-12-27T10:22:24.143Z,20.17
2018-12-27T10:27:19.857Z,22.83
2018-12-27T10:32:15.567Z,20.73
2018-12-27T10:37:11.533Z,24.80
2018-12-27T10:42:07.227Z,22.03
2018-12-27T10:47:02.956Z,18.60
2018-12-27T10:51:58.625Z,21.03
2018-12-27T10:56:54.635Z,18.83
2018-12-27T11:01:50.317Z,22.10
2018-12-27T11:06:46.034Z,20.50
2018-12-27T11:11:41.729Z,21.30
2018-12-27T11:16:37.497Z,19.80
2018-12-27T11:21:33.208Z,18.13
2018-12-27T11:26:28.923Z,17.10
2018-12-27T11:31:24.635Z,17.60
2018-12-27T11:36:20.306Z,21.03
2018-12-27T11:41:16.043Z,17.40
2018-12-27T11:46:11.779Z,16.07
2018-12-27T11:51:08.757Z,17.70
2018-12-27T11:56:04.599Z,17.87
2018-12-27T12:01:00.315Z,21.87
2018-12-27T12:06:02.949Z,16.80
2018-12-27T12:10:53.737Z,15.43
2018-12-27T12:15:49.766Z,16.70
2018-12-27T12:20:45.452Z,18.73
2018-12-27T12:25:41.291Z,16.47
2018-12-27T12:30:37.004Z,16.17
2018-12-27T12:35:33.689Z,15.40
2018-12-27T12:40:29.775Z,17.80
2018-12-27T12:45:25.487Z,16.30
2018-12-27T12:50:21.286Z,15.00
2018-12-27T12:55:17.276Z,16.37
2018-12-27T13:00:12.995Z,15.53
2018-12-27T13:05:08.694Z,13.80
2018-12-27T13:10:04.631Z,12.27
2018-12-27T13:15:00.331Z,16.07
2018-12-27T13:19:56.059Z,14.20
2018-12-27T13:24:51.744Z,15.17
2018-12-27T13:29:47.452Z,17.93
2018-12-27T13:34:43.469Z,14.30
2018-12-27T13:39:39.208Z,16.17
2018-12-27T13:44:34.925Z,14.73
2018-12-27T13:49:30.613Z,14.23
2018-12-27T13:54:26.798Z,13.87
2018-12-27T13:59:22.530Z,14.27
2018-12-27T14:04:18.221Z,13.23
2018-12-27T14:09:13.941Z,16.10
2018-12-27T14:14:09.624Z,16.33
2018-12-27T14:19:05.346Z,12.87
2018-12-27T14:24:01.072Z,14.17
2018-12-27T14:28:56.801Z,14.27
2018-12-27T14:33:52.521Z,14.30
2018-12-27T14:38:48.246Z,11.07
2018-12-27T14:43:43.988Z,16.47
2018-12-27T14:48:39.755Z,11.73
2018-12-27T14:53:35.471Z,11.07
2018-12-27T14:58:31.142Z,11.73
2018-12-27T15:03:27.193Z,12.63
2018-12-27T15:08:22.931Z,11.53
2018-12-27T15:13:18.672Z,12.70
2018-12-27T15:18:14.358Z,13.13
2018-12-27T15:23:10.192Z,15.73
2018-12-27T15:28:05.881Z,16.00
2018-12-27T15:33:01.605Z,15.27
2018-12-27T15:37:57.353Z,15.50
2018-12-27T15:42:53.161Z,12.87
2018-12-27T15:47:48.930Z,14.30
2018-12-27T15:52:44.695Z,14.33
2018-12-27T15:57:40.393Z,15.93
2018-12-27T16:02:36.166Z,9.97
2018-12-27T16:07:31.868Z,11.17
2018-12-27T16:12:27.573Z,11.97
2018-12-27T16:17:23.309Z,12.20
2018-12-27T16:22:18.989Z,11.13
2018-12-27T16:27:14.694Z,10.47
2018-12-27T16:32:10.419Z,16.00
2018-12-27T16:37:09.189Z,12.67
2018-12-27T16:42:03.808Z,12.10
2018-12-27T16:47:00.677Z,12.47
2018-12-27T16:51:57.120Z,12.87
2018-12-27T16:56:53.767Z,13.73
2018-12-27T17:01:50.233Z,14.40
2018-12-27T17:06:47.634Z,14.67
2018-12-27T17:11:43.654Z,12.57
2018-12-27T17:16:39.429Z,26.03
2018-12-27T17:21:35.623Z,15.20
2018-12-27T17:26:31.354Z,14.37
2018-12-27T17:31:27.182Z,15.13
2018-12-27T17:36:23.675Z,13.37
2018-12-27T17:41:19.619Z,15.30
2018-12-27T17:46:15.599Z,15.20
2018-12-27T17:51:11.661Z,12.50
2018-12-27T17:56:07.409Z,13.17
2018-12-27T18:01:03.583Z,13.23
2018-12-27T18:05:59.322Z,13.57
2018-12-27T18:10:55.007Z,14.50
2018-12-27T18:15:50.729Z,14.43
2018-12-27T18:20:46.453Z,16.60
2018-12-27T18:25:42.177Z,14.83
2018-12-27T18:30:37.901Z,16.03
2018-12-27T18:35:33.915Z,15.30
2018-12-27T18:40:29.681Z,14.60
2018-12-27T18:45:25.391Z,16.57
2018-12-27T18:50:21.095Z,15.53
2018-12-27T18:55:20.263Z,14.70
2018-12-27T19:00:14.459Z,15.03
2018-12-27T19:05:10.447Z,17.50
2018-12-27T19:10:26.127Z,18.17
2018-12-27T19:15:21.846Z,22.53
2018-12-27T19:20:17.542Z,18.97
2018-12-27T19:25:13.269Z,24.53
2018-12-27T19:30:08.959Z,20.30
2018-12-27T19:35:04.687Z,24.27
2018-12-27T19:40:00.403Z,16.57
2018-12-27T19:44:56.149Z,20.10
2018-12-27T19:49:51.883Z,18.13
2018-12-27T19:54:47.586Z,18.17
2018-12-27T19:59:43.327Z,19.37
2018-12-27T20:04:39.051Z,21.67
2018-12-27T20:09:34.760Z,22.47
2018-12-27T20:14:30.800Z,14.63
2018-12-27T20:19:27.344Z,17.30
2018-12-27T20:24:23.398Z,16.80
2018-12-27T20:29:19.154Z,18.80
2018-12-27T20:34:14.862Z,16.47
2018-12-27T20:44:12.344Z,18.03
2018-12-27T20:49:08.052Z,21.63
2018-12-27T20:54:03.886Z,20.40
2018-12-27T20:58:59.615Z,22.87
2018-12-27T21:03:55.350Z,25.50
2018-12-27T21:08:51.170Z,22.03
2018-12-27T21:13:46.865Z,24.17
2018-12-27T21:18:42.606Z,22.10
2018-12-27T21:23:38.511Z,21.50
2018-12-27T21:28:34.317Z,20.90
2018-12-27T21:33:30.123Z,22.07
2018-12-27T21:38:25.799Z,19.60
2018-12-27T21:43:21.542Z,20.17
2018-12-27T21:48:17.261Z,20.17
2018-12-27T21:53:13.001Z,19.13
2018-12-27T21:58:08.730Z,20.20
2018-12-27T22:03:04.453Z,20.37
2018-12-27T22:08:20.262Z,20.73
2018-12-27T22:13:35.962Z,23.30
2018-12-27T22:18:31.684Z,22.57
2018-12-27T22:23:27.937Z,21.70
2018-12-27T22:28:23.732Z,26.30
2018-12-27T22:33:19.789Z,19.43
2018-12-27T22:38:15.498Z,18.43
2018-12-27T22:43:11.550Z,22.13
2018-12-27T22:48:07.287Z,22.33
2018-12-27T22:53:02.995Z,21.47
2018-12-27T22:57:58.676Z,19.47
2018-12-27T23:02:54.425Z,20.60
2018-12-27T23:07:50.131Z,21.67
2018-12-27T23:12:45.830Z,28.30
2018-12-27T23:17:41.535Z,24.23
2018-12-27T23:22:37.251Z,28.23
2018-12-27T23:27:32.951Z,22.77
2018-12-27T23:32:28.673Z,22.23
2018-12-27T23:37:24.398Z,23.17
2018-12-27T23:42:20.110Z,20.23
2018-12-27T23:47:15.893Z,27.60
2018-12-27T23:52:11.606Z,22.23
2018-12-27T23:57:07.575Z,23.90
